Cumberland, Rhode Island
Current Conditions -  °F | °C
As of 12:15 PM on Friday 24 Oct 2014 (Local Time) from KSFZ Reporting Station
Overcast Overcast  
Wind Chill: 52°   Ceiling: 1600
Heat Index: 52°   Visibility: 10mi
Dew Point: 41°   Wind: 8mph
Humidity: 67%   Direction: 330°NNW
Pressure: 29.7"   Gusts: NA
Location:  41.95°N, 71.42°W
Report Text: KSFZ 241615Z 33007KT 10SM OVC016 11/05 A2970 RMK AO1
Loading
Personal Weather Stations






























Interactive Weather Map
Tropical Storm Tracking
New forecast layout! Learn more

10-Day Weather Forecast

Advertisements
Track Severe Weather on mobile